Tiziano Catalano

Scout - Fiorentina
3 Dez 2028
Sonntag
Verarbeitung

Persönlichkeit

Anpassungsfähigkeit (11) Ehrgeiz (7) Kontroverse (14) Loyalität (10) Druck (10) Professionalität (17) Fairness (11) Temperament (5)

Profil

Trainerstil Demokratisch
Lizenz Kontinentale A
Entschlossenheit 15
Menschenführung 6
Motivation 15
Disziplin 12
Arbeitszufriedenheit
100%
Ermüdung
0%
Rolle Scout
Gehalt 63.0K p/W
Vertrag 14.03.2029

Leistung

Verhalten Gut
Trainingseffektivität
51%
Spielerentwicklung
70%
Verletzungsprävention
45%
Taktische Umsetzung
60%

Letzte Ereignisse

Nahm an einer Scouting-Besprechung teil jetzt
Empfahl ein Transferziel jetzt
Empfahl ein Transferziel jetzt
Nahm an einer Scouting-Besprechung teil jetzt
Spieler begutachtet jetzt
Spieler begutachtet jetzt
Spieler begutachtet 7T her
Spieler begutachtet 7T her

Aktuell beobachtet

152
Spieler Verein Status Fähigkeit Vertrauen Beobachtet Zuletzt beobachtet Letzte Stimme
Eduardo Lozano Botafogo Aktiv 151 / 153 40% 14 30.11.2028 -
Matías Fernández-Pardo Atalanta Aktiv 155 / 158 40% 6 30.11.2028 -
Alieu Njie Torino Aktiv 144 / 137 40% 9 30.11.2028 -
Davinchi Getafe Aktiv 129 / 127 40% 1 30.11.2028 -
Nejc Viher NK Maribor Aktiv 117 / 121 40% 1 30.11.2028 -
Aidan Borland Espanyol Aktiv 115 / 117 40% 1 30.11.2028 -
Babis Kostoulas Oxford United Aktiv 148 / 159 40% 12 28.11.2028 -
Stefanos Tzimas Brighton Aktiv 147 / 152 40% 19 28.11.2028 -
Bernardo Lima Porto Aktiv 119 / 132 40% 3 28.11.2028 -
Mohamed Meïté Al-Hilal Aktiv 139 / 144 40% 5 28.11.2028 -
Alexis Vossah Toulouse FC Aktiv 129 / 131 40% 1 28.11.2028 -
Vitaly Bondarev Ural Aktiv 116 / 119 40% 1 28.11.2028 -
Leo Castledine Middlesbrough Aktiv 142 / 147 40% 9 26.11.2028 -
Emersonn Ipswich Town Aktiv 136 / 142 40% 10 26.11.2028 -
Dastan Sätpayev Sunderland Aktiv 138 / 147 40% 5 26.11.2028 -
Iker Bravo Napoli Aktiv 139 / 146 40% 12 25.11.2028 -
Franculino Brighton Aktiv 153 / 151 40% 9 25.11.2028 -
Riquelme Thompson-Jones Accrington Stanley Aktiv 110 / 127 40% 4 23.11.2028 -
Jayden Danns Bradford City Aktiv 143 / 144 40% 16 23.11.2028 -
Tommy Watson Cardiff City Aktiv 145 / 147 40% 11 23.11.2028 -
Cheveyo Tsawa Club Brugge Aktiv 133 / 131 40% 2 23.11.2028 -
Josh King Newcastle United Aktiv 148 / 150 40% 1 23.11.2028 -
Rodrigo Ribeiro Bayer Leverkusen Aktiv 137 / 143 40% 8 22.11.2028 -
Jakob Napoleon Romsaas Monaco Aktiv 134 / 133 40% 1 22.11.2028 -
Eli Junior Kroupi Bournemouth Aktiv 153 / 149 40% 8 19.11.2028 -
Damion Downs Southampton Aktiv 133 / 137 40% 8 19.11.2028 -
Adam Daghim RB Leipzig Aktiv 142 / 148 40% 3 18.11.2028 -
Divin Mubama Manchester City Aktiv 132 / 142 40% 2 18.11.2028 -
Mikey Moore Stockport County Aktiv 147 / 145 40% 7 17.11.2028 -
Mathys Tel Tottenham Aktiv 155 / 160 40% 14 16.11.2028 -
Samed Baždar Paris Saint-Germain Aktiv 135 / 146 40% 5 16.11.2028 -
Harry Gray Harrogate Town Aktiv 134 / 141 40% 3 16.11.2028 -
Vanja Vlahović Spezia Aktiv 137 / 142 40% 5 10.11.2028 -
Christos Mouzakitis Hull City Aktiv 142 / 153 40% 3 08.11.2028 -
Leon Grgić Werder Bremen Aktiv 138 / 143 40% 13 08.11.2028 -
Antonio Raimondo Bologna Aktiv 132 / 125 40% 3 08.11.2028 -
Jofre Torrents Ajax Aktiv 140 / 147 40% 1 08.11.2028 -
Tobías Andrada River Plate Aktiv 118 / 124 40% 1 08.11.2028 -
Pablo Felipe West Ham United Aktiv 147 / 148 40% 5 07.11.2028 -
Yassir Zabiri Stade Rennais Aktiv 144 / 149 40% 5 07.11.2028 -
Ilyas Ansah Hull City Aktiv 141 / 151 40% 11 05.11.2028 -
Sindre Walle Egeli Udinese Aktiv 147 / 143 40% 13 01.11.2028 -
Trey Nyoni Rotherham United Aktiv 143 / 150 40% 5 01.11.2028 -
Matteo Palma Udinese Aktiv 134 / 148 40% 4 01.11.2028 -
José Neto Benfica Aktiv 126 / 129 40% 1 01.11.2028 -
Ronan Kpakio AC Milan Aktiv 131 / 141 40% 3 28.10.2028 -
Omar Nader Brentford Aktiv 144 / 145 40% 4 28.10.2028 -
Ibrahim Osman Norwich City Aktiv 142 / 147 40% 6 28.10.2028 -
Axel Tape Bayer Leverkusen Aktiv 134 / 145 40% 1 28.10.2028 -
Jayden Ngwashi Manchester United Aktiv 118 / 122 40% 1 28.10.2028 -
Tyrique George Everton Aktiv 132 / 140 40% 2 25.10.2028 -
Nelson Weiper Mainz 05 Aktiv 133 / 135 40% 1 23.10.2028 -
Miguel Figueiredo Benfica Aktiv 126 / 132 40% 7 20.10.2028 -
Ayyoub Bouaddi Stoke City Aktiv 156 / 156 40% 2 20.10.2028 -
Wilfried Gnonto Leeds United Aktiv 148 / 148 40% 9 14.10.2028 -
Celías Ingenthron Platense Aktiv 113 / 127 40% 1 13.10.2028 -
Wout Gielen Juventus Aktiv 113 / 112 40% 1 13.10.2028 -
Giovanni Leoni Lincoln City Aktiv 149 / 154 40% 4 11.10.2028 -
Felipe Obradovich Ferro Carril Oeste Aktiv 108 / 118 40% 3 11.10.2028 -
Andrey Ivlev Nizhniy Novgorod Aktiv 110 / 133 40% 4 09.10.2028 -
August Priske Sunderland Aktiv 140 / 146 40% 4 05.10.2028 -
Abubacarr Sedi Kinteh Al-Ahli Aktiv 133 / 144 40% 2 04.10.2028 -
Dor Turgeman Spartak Moscow Aktiv 132 / 150 40% 1 02.10.2028 -
Jan Bürger Northampton Town Aktiv 126 / 120 40% 6 26.09.2028 -
Honest Ahanor Atalanta Aktiv 139 / 139 40% 1 26.09.2028 -
Salvador Blopá Wolverhampton Aktiv 125 / 125 40% 1 26.09.2028 -
Jack Fletcher Manchester United Aktiv 116 / 126 40% 1 19.09.2028 -
Chris Rigg West Ham United Aktiv 142 / 153 40% 1 19.09.2028 -
Matai Akinmboni Bournemouth Aktiv 116 / 118 40% 1 15.09.2028 -
Felipe Pujol Vélez Aktiv 112 / 121 40% 1 15.09.2028 -
Louis Page Leicester City Aktiv 130 / 137 40% 1 15.09.2028 -
Tyler Fletcher Rotherham United Aktiv 119 / 128 40% 1 14.09.2028 -
Branimir Mlačić Udinese Aktiv 127 / 131 40% 1 14.09.2028 -
Vadim Rakov CSKA Moscow Aktiv 126 / 122 40% 2 10.09.2028 -
Mateo Joseph Leeds United Aktiv 142 / 144 40% 9 09.09.2028 -
Daniel Banjaqui Benfica Aktiv 130 / 135 40% 3 08.09.2028 -
Lamine Ballo Inter Aktiv 116 / 128 40% 1 08.09.2028 -
Mateus Mané Burnley Aktiv 148 / 154 40% 7 06.09.2028 -
Alieu Njie Torino Verloren 138 / 139 40% 5 21.08.2028 -
Ebenezer Akinsanmiro Inter Bericht bereit 136 / 140 83% 1 21.08.2028 -
Nico Paz Arsenal Aktiv 169 / 172 40% 1 07.08.2028 -
Antonio Raimondo Bologna Verloren 132 / 129 40% 1 07.08.2028 -
Luca Moro Padova Bericht bereit 124 / 126 83% 1 10.07.2028 -
Luka Vušković Tottenham Aktiv 149 / 149 40% 3 03.07.2028 -
Tobías Ramírez River Plate Aktiv 124 / 126 40% 3 03.07.2028 -
Fabio Rispoli Como Aktiv 116 / 132 40% 5 28.06.2028 -
Josh Stephenson Brentford Aktiv 118 / 125 40% 1 26.06.2028 -
James Rodríguez Pescara Bericht bereit 131 / 136 79% 1 19.06.2028 -
Andrea Cogoni Cosenza Aktiv 115 / 121 40% 4 06.06.2028 -
Nazareno Roselli Defensa y Justicia Aktiv 115 / 123 40% 2 05.06.2028 -
Josh Nichols Oldham Athletic Aktiv 121 / 133 40% 6 04.06.2028 -
Domenico Berardi Sassuolo Bericht bereit 142 / 133 79% 1 02.06.2028 -
Veljko Milosavljević Bournemouth Aktiv 146 / 151 40% 1 02.06.2028 -
Bart Verbruggen Liverpool Aktiv 164 / 167 40% 2 01.06.2028 -
Stefano Di Mario Virtus Entella Verloren 121 / 122 79% 1 01.06.2028 -
Mark Travers Leicester City Aktiv 143 / 140 40% 1 01.06.2028 -
Lucas Chevalier AC Milan Aktiv 165 / 159 40% 1 01.06.2028 -
Federico Ravaglia Bologna Aktiv 141 / 145 40% 4 31.05.2028 -
Justin Bijlow Atalanta Aktiv 145 / 144 40% 1 31.05.2028 -
Endrick Boca Juniors Aktiv 153 / 155 40% 1 31.05.2028 -
Augusto Bando Ascoli Aktiv 107 / 110 40% 1 31.05.2028 -
Ibrahim Fullah Charlton Athletic Aktiv 119 / 123 40% 1 31.05.2028 -
William Osula Wrexham Aktiv 138 / 142 40% 4 29.05.2028 -
Lorenzo Venturino Juventus Aktiv 140 / 143 40% 1 29.05.2028 -
Richard Koné Queens Park Rangers Aktiv 133 / 135 40% 3 28.05.2028 -
Mihailo Ivanović Aston Villa Aktiv 134 / 135 40% 4 20.05.2028 -
Eguinaldo Shakhtar Aktiv 132 / 137 40% 2 16.05.2028 -
Mohamed-Ali Cho Hull City Aktiv 140 / 145 40% 4 13.05.2028 -
Vittorio Magni Cesena Aktiv 105 / 113 40% 2 12.05.2028 -
Nilson Angulo Sunderland Aktiv 129 / 139 40% 6 05.05.2028 -
Agustín Medina Lanús Aktiv 111 / 127 40% 2 05.05.2028 -
Martim Cunha Porto Aktiv 107 / 112 40% 2 05.05.2028 -
Petar Ratkov Lazio Aktiv 140 / 130 40% 2 24.04.2028 -
Jonathan Rowe Bologna Aktiv 135 / 141 40% 2 09.04.2028 -
Bade Aluko Leicester City Aktiv 124 / 120 40% 2 08.04.2028 -
Ayden Heaven Portsmouth Aktiv 143 / 150 40% 1 02.04.2028 -
Samu Aghehowa Udinese Aktiv 154 / 158 40% 1 24.03.2028 -
Josh Acheampong Everton Aktiv 140 / 139 40% 2 13.03.2028 -
Othniël Raterink Cagliari Aktiv 114 / 128 40% 2 11.03.2028 -
Olivier Mambwa Young Boys Aktiv 111 / 126 40% 1 06.03.2028 -
Borja Sainz Udinese Aktiv 149 / 152 76% 1 24.01.2028 -
Jeff Ekhator Juventus Aktiv 128 / 139 40% 6 22.06.2027 Beobachten
Massimo Zilli Spezia Aktiv 113 / 118 40% 6 31.05.2027 -
Jaygo van Ommeren Utrecht Aktiv 106 / 120 40% 1 29.05.2027 -
Riley Owen Stevenage Aktiv 97 / 101 40% 1 28.05.2027 -
Ezra Mayers West Ham United Aktiv 118 / 122 40% 1 27.05.2027 -
Sascha Britschgi AC Milan Aktiv 121 / 122 40% 1 26.05.2027 -
Eliás Montiel Borussia Dortmund Aktiv 130 / 127 40% 1 25.05.2027 -
Stiven Shpendi Empoli Aktiv 119 / 113 40% 3 23.05.2027 -
Giorgos Koutsias Famalicao Aktiv 122 / 115 40% 4 18.05.2027 -
Younes Ebnoutalib Eintracht Frankfurt Aktiv 134 / 134 40% 2 18.05.2027 -
Kiani Inge Groningen Aktiv 101 / 109 40% 1 10.05.2027 -
Gady Beyuku Blackburn Rovers Aktiv 118 / 116 40% 1 09.05.2027 -
Erick Dolly Black Aces Aktiv 107 / 126 40% 3 07.05.2027 -
Matija Frigan Parma Aktiv 121 / 118 40% 3 06.05.2027 -
David Romero Parma Aktiv 129 / 124 40% 3 05.05.2027 -
Manfred Ugalde Spartak Moscow Aktiv 129 / 118 40% 4 02.05.2027 -
Maksim Samorodov Akhmat Grozny Aktiv 128 / 124 40% 1 23.04.2027 -
Filippo Distefano Empoli Aktiv 123 / 124 40% 1 21.04.2027 -
Tio Cipot NK Maribor Aktiv 123 / 127 40% 2 10.04.2027 -
Thom van Bergen Groningen Aktiv 122 / 119 40% 1 08.04.2027 -
José Martínes CSKA 1948 Aktiv 115 / 118 40% 2 06.04.2027 -
Mile Svilar AS Roma Aktiv 155 / 168 40% 6 29.03.2027 -
Berna CSKA 1948 Aktiv 120 / 126 40% 2 17.03.2027 -
Younes El Bahraoui Al-Taawoun Aktiv 102 / 109 40% 1 06.03.2027 -
Ádin Molnár MTK Budapest Aktiv 114 / 98 40% 1 02.03.2027 -
Raoul Bellanova Atalanta Aktiv 145 / 140 40% 1 31.12.2026 -
Jean-Daniel Akpa Akpro Hellas Verona Aktiv 127 / 130 69% 1 24.08.2026 Befürworten
Marco Sportiello Atalanta Aktiv 124 / 124 69% 1 10.08.2026 Befürworten
Florian Wirtz Liverpool Aktiv 172 / 164 40% 1 01.08.2026 -
Martín Zubimendi Arsenal Aktiv 161 / 172 40% 1 01.08.2026 -
Matías Soulé AS Roma Aktiv 160 / 159 40% 1 01.08.2026 -